Time;durP1;ratioP1;P1;durP2;ratioP2;P2;SDS_P1;SDS_P2;PMS_P1;PMS_P2;Temp;Humidity;BMP_temperature;BMP_pressure;BME280_temperature;BME280_humidity;BME280_pressure;Samples;Min_cycle;Max_cycle;Signal;HPM_P1;HPM_P2
2022/06/21 00:00:20;;;;;;;2.13;1.10;;;13.00;66.90;;;;;;5004143;28;20034;-72
2022/06/21 00:02:46;;;;;;;3.15;1.05;;;13.00;67.10;;;;;;5002194;28;20041;-71
2022/06/21 00:05:21;;;;;;;3.70;1.20;;;12.90;67.10;;;;;;5015000;28;20045;-71
2022/06/21 00:07:46;;;;;;;1.40;1.00;;;12.90;67.30;;;;;;4988523;28;20057;-71
2022/06/21 00:10:15;;;;;;;3.05;1.10;;;12.80;67.30;;;;;;5010002;28;20514;-72
2022/06/21 00:12:40;;;;;;;3.58;1.00;;;12.80;67.60;;;;;;5024143;28;20664;-71
2022/06/21 00:15:06;;;;;;;2.67;0.90;;;12.80;67.70;;;;;;5002566;28;20021;-72
2022/06/21 00:17:32;;;;;;;1.77;1.02;;;12.80;67.80;;;;;;5015695;28;20048;-71
2022/06/21 00:19:57;;;;;;;1.27;0.85;;;12.80;67.80;;;;;;5007145;28;20025;-70
2022/06/21 00:22:23;;;;;;;1.10;1.00;;;12.70;67.80;;;;;;4975986;28;20041;-71
2022/06/21 00:24:48;;;;;;;1.33;1.23;;;12.80;67.90;;;;;;5017426;28;24687;-71
2022/06/21 00:27:15;;;;;;;1.05;0.90;;;12.70;67.80;;;;;;5031400;28;20116;-71
2022/06/21 00:29:41;;;;;;;3.15;1.80;;;12.70;67.80;;;;;;5016339;28;20076;-70
2022/06/21 00:32:12;;;;;;;1.92;1.13;;;12.70;67.90;;;;;;4993378;28;20496;-70
2022/06/21 00:34:37;;;;;;;1.40;1.10;;;12.60;68.10;;;;;;5022081;28;20042;-71
2022/06/21 00:37:03;;;;;;;1.55;1.08;;;12.60;68.00;;;;;;5012436;28;20276;-71
2022/06/21 00:39:28;;;;;;;1.80;1.10;;;12.60;68.00;;;;;;4981842;28;20114;-71
2022/06/21 00:42:01;;;;;;;3.83;1.05;;;12.60;68.00;;;;;;5008293;28;20143;-71
2022/06/21 00:44:38;;;;;;;1.40;0.82;;;12.60;68.20;;;;;;5003951;28;20042;-71
2022/06/21 00:47:14;;;;;;;0.80;0.80;;;12.60;68.40;;;;;;4996794;28;20041;-70
2022/06/21 00:49:50;;;;;;;2.53;0.85;;;12.60;68.00;;;;;;5010824;28;20025;-70
2022/06/21 00:52:19;;;;;;;2.40;0.95;;;12.60;68.20;;;;;;4982200;28;20041;-72
2022/06/21 00:55:03;;;;;;;1.75;1.10;;;12.50;68.10;;;;;;4986592;28;20038;-71
2022/06/21 00:57:38;;;;;;;2.88;0.95;;;12.50;68.50;;;;;;5014358;28;20744;-71
2022/06/21 01:00:22;;;;;;;2.00;1.05;;;12.50;68.50;;;;;;5018134;28;20037;-71
2022/06/21 01:02:48;;;;;;;1.65;1.08;;;12.50;68.70;;;;;;5010318;28;20041;-71
2022/06/21 01:05:13;;;;;;;1.75;1.00;;;12.50;68.40;;;;;;5012114;28;20046;-71
2022/06/21 01:07:39;;;;;;;2.95;1.25;;;12.50;68.50;;;;;;5017636;28;20433;-70
2022/06/21 01:10:09;;;;;;;1.00;0.80;;;12.40;68.50;;;;;;5002419;28;20494;-71
2022/06/21 01:12:41;;;;;;;1.52;1.10;;;12.40;68.70;;;;;;5016226;28;20041;-71
2022/06/21 01:15:09;;;;;;;1.20;1.10;;;12.40;68.90;;;;;;5012334;28;20055;-70
2022/06/21 01:17:35;;;;;;;2.92;1.10;;;12.40;68.80;;;;;;5006106;28;20094;-71
2022/06/21 01:20:07;;;;;;;2.13;1.10;;;12.40;68.90;;;;;;5015227;28;20633;-71
2022/06/21 01:22:56;;;;;;;1.17;0.90;;;12.30;69.10;;;;;;5002086;28;20157;-72
2022/06/21 01:25:29;;;;;;;2.00;1.10;;;12.30;69.00;;;;;;4994306;28;20592;-70
2022/06/21 01:27:56;;;;;;;1.13;0.80;;;12.30;68.90;;;;;;4994581;28;20709;-70
2022/06/21 01:30:23;;;;;;;1.30;1.15;;;12.30;68.90;;;;;;5003323;28;20055;-71
2022/06/21 01:32:48;;;;;;;1.63;1.00;;;12.20;68.90;;;;;;5010138;28;20061;-71
2022/06/21 01:35:23;;;;;;;2.83;1.20;;;12.20;69.00;;;;;;4985619;28;20045;-71
2022/06/21 01:37:54;;;;;;;2.80;0.85;;;12.20;69.20;;;;;;4994429;28;20525;-70
2022/06/21 01:40:25;;;;;;;1.35;1.25;;;12.10;69.00;;;;;;5024543;28;20515;-71
2022/06/21 01:42:53;;;;;;;1.17;1.08;;;12.10;69.20;;;;;;4994401;28;20095;-70
2022/06/21 01:45:26;;;;;;;1.50;1.33;;;12.10;69.30;;;;;;5008360;28;20148;-71
2022/06/21 01:47:56;;;;;;;1.92;0.93;;;12.10;69.40;;;;;;5002172;28;20541;-71
2022/06/21 01:50:22;;;;;;;1.60;1.27;;;12.00;69.40;;;;;;4991091;28;20037;-71
2022/06/21 01:52:48;;;;;;;1.65;1.15;;;11.90;69.30;;;;;;5002657;28;20657;-71
2022/06/21 01:55:23;;;;;;;1.00;1.00;;;11.90;69.50;;;;;;4982240;28;20037;-70
2022/06/21 01:57:48;;;;;;;1.05;0.90;;;11.90;69.80;;;;;;4991274;28;20085;-70
2022/06/21 02:00:14;;;;;;;2.25;1.15;;;11.90;69.60;;;;;;4993807;28;20820;-70
2022/06/21 02:02:44;;;;;;;1.38;1.13;;;11.80;69.70;;;;;;4991287;28;20121;-71
2022/06/21 02:05:21;;;;;;;2.53;1.30;;;11.80;69.70;;;;;;4999174;28;20037;-71
2022/06/21 02:07:52;;;;;;;1.52;1.17;;;11.80;70.00;;;;;;4978515;28;20033;-71
2022/06/21 02:10:24;;;;;;;3.23;1.90;;;11.80;70.70;;;;;;4995990;28;20033;-72
2022/06/21 02:12:53;;;;;;;3.42;1.15;;;11.70;69.90;;;;;;5002152;28;20038;-70
2022/06/21 02:15:31;;;;;;;3.78;1.25;;;11.70;69.80;;;;;;4986813;28;20033;-70
2022/06/21 02:17:56;;;;;;;2.70;1.33;;;11.70;70.10;;;;;;4999330;28;20034;-70
2022/06/21 02:20:57;;;;;;;1.58;1.10;;;11.60;70.00;;;;;;5000164;28;20158;-72
2022/06/21 02:23:23;;;;;;;1.23;1.10;;;11.60;70.40;;;;;;5028814;28;20041;-70
2022/06/21 02:25:50;;;;;;;3.63;1.58;;;11.60;70.10;;;;;;4998054;28;20452;-71
2022/06/21 02:28:17;;;;;;;1.85;1.10;;;11.60;70.20;;;;;;5009073;28;20034;-70
2022/06/21 02:30:43;;;;;;;3.67;1.35;;;11.60;70.20;;;;;;5004228;28;20120;-70
2022/06/21 02:33:20;;;;;;;3.78;1.23;;;11.60;70.30;;;;;;4981663;28;20111;-70
2022/06/21 02:35:50;;;;;;;2.60;1.27;;;11.60;70.40;;;;;;5018787;28;20033;-72
2022/06/21 02:38:36;;;;;;;1.48;1.13;;;11.60;70.50;;;;;;5003605;28;20042;-71
2022/06/21 02:41:17;;;;;;;1.60;1.30;;;11.50;70.70;;;;;;5015483;28;20034;-70
2022/06/21 02:43:53;;;;;;;1.40;1.20;;;11.50;70.50;;;;;;5012629;28;20037;-71
2022/06/21 02:46:24;;;;;;;1.90;1.48;;;11.50;70.60;;;;;;5011604;28;20477;-70
2022/06/21 02:48:54;;;;;;;2.30;1.40;;;11.40;71.40;;;;;;4998669;28;20103;-71
2022/06/21 02:51:23;;;;;;;2.42;1.40;;;11.40;70.70;;;;;;5000306;28;20088;-72
2022/06/21 02:54:09;;;;;;;1.67;1.10;;;11.40;70.60;;;;;;5008176;28;20037;-71
2022/06/21 02:57:05;;;;;;;1.63;1.50;;;11.40;70.90;;;;;;5025320;28;20060;-71
2022/06/21 02:59:32;;;;;;;3.58;1.50;;;11.40;71.00;;;;;;4991274;28;20056;-71
2022/06/21 03:02:00;;;;;;;2.10;1.60;;;11.40;70.60;;;;;;5013365;28;20807;-71
2022/06/21 03:04:49;;;;;;;2.15;1.20;;;11.40;70.70;;;;;;4989408;28;20048;-71
2022/06/21 03:07:30;;;;;;;2.80;1.40;;;11.40;70.80;;;;;;5014496;28;20041;-71
2022/06/21 03:09:56;;;;;;;1.67;1.40;;;11.40;71.10;;;;;;4993335;28;20065;-72
2022/06/21 03:12:23;;;;;;;1.60;1.40;;;11.30;70.70;;;;;;5003067;28;20064;-71
2022/06/21 03:14:51;;;;;;;2.08;1.23;;;11.40;70.80;;;;;;5008287;28;20602;-71
2022/06/21 03:17:17;;;;;;;1.02;0.95;;;11.30;70.80;;;;;;4998455;28;20033;-72
2022/06/21 03:19:52;;;;;;;1.33;1.23;;;11.30;70.80;;;;;;4986756;28;20034;-72
2022/06/21 03:22:24;;;;;;;1.40;1.30;;;11.20;71.10;;;;;;5007156;28;20517;-72
2022/06/21 03:24:55;;;;;;;1.58;1.23;;;11.30;71.10;;;;;;5016259;28;20046;-70
2022/06/21 03:27:33;;;;;;;2.28;1.30;;;11.20;71.00;;;;;;5031054;28;20041;-71
2022/06/21 03:29:59;;;;;;;1.35;1.20;;;11.20;71.20;;;;;;4999290;28;20127;-71
2022/06/21 03:32:25;;;;;;;1.50;1.40;;;11.20;71.00;;;;;;5011883;28;20558;-71
2022/06/21 03:34:50;;;;;;;3.17;1.35;;;11.20;71.10;;;;;;5002155;28;20037;-70
2022/06/21 03:37:18;;;;;;;1.75;1.38;;;11.20;71.10;;;;;;5002708;28;20037;-72
2022/06/21 03:42:31;;;;;;;1.73;1.63;;;11.20;71.20;;;;;;5003746;28;20135;-70
2022/06/21 03:45:00;;;;;;;2.50;1.52;;;11.20;71.20;;;;;;4990655;28;20299;-71
2022/06/21 03:47:30;;;;;;;1.30;1.20;;;11.20;71.30;;;;;;4996522;28;20125;-70
2022/06/21 03:50:20;;;;;;;2.28;1.25;;;11.20;71.30;;;;;;4999138;28;20115;-71
2022/06/21 03:53:04;;;;;;;1.65;1.40;;;11.20;71.40;;;;;;4991632;28;20163;-71
2022/06/21 03:55:41;;;;;;;1.40;1.30;;;11.10;71.20;;;;;;5019207;28;20026;-71
2022/06/21 03:58:10;;;;;;;2.50;1.60;;;11.10;71.20;;;;;;5019870;28;20591;-70
2022/06/21 04:01:03;;;;;;;3.53;1.40;;;11.10;71.40;;;;;;5005585;28;20529;-71
2022/06/21 04:03:33;;;;;;;1.73;1.27;;;11.10;71.70;;;;;;4997089;28;20047;-71
2022/06/21 04:06:05;;;;;;;3.15;1.30;;;11.10;71.50;;;;;;4990866;28;20438;-71
2022/06/21 04:08:46;;;;;;;1.52;1.40;;;11.10;72.50;;;;;;5003645;28;20045;-71
2022/06/21 04:11:19;;;;;;;1.50;1.40;;;11.10;71.70;;;;;;5033139;28;20037;-71
2022/06/21 04:13:50;;;;;;;2.42;1.35;;;11.10;71.90;;;;;;5004561;28;20120;-71
2022/06/21 04:16:17;;;;;;;2.47;1.58;;;11.20;72.00;;;;;;5017108;28;20069;-71
2022/06/21 04:18:55;;;;;;;2.08;1.85;;;11.20;71.90;;;;;;5017983;28;20065;-71
2022/06/21 04:21:44;;;;;;;2.30;1.40;;;11.20;72.20;;;;;;5002016;28;20490;-73
2022/06/21 04:24:25;;;;;;;2.13;1.10;;;11.20;72.10;;;;;;5018164;28;20037;-71
2022/06/21 04:27:16;;;;;;;3.95;1.30;;;11.20;72.10;;;;;;4992606;28;20037;-71
2022/06/21 04:29:52;;;;;;;1.30;1.20;;;11.20;71.90;;;;;;5004118;28;20124;-72
2022/06/21 04:32:28;;;;;;;1.77;1.67;;;11.20;72.10;;;;;;4992384;28;20048;-72
2022/06/21 04:35:05;;;;;;;2.35;2.13;;;11.30;72.30;;;;;;5011546;28;20037;-72
2022/06/21 04:37:41;;;;;;;2.42;1.73;;;11.30;73.40;;;;;;5001859;28;20406;-72
2022/06/21 04:40:19;;;;;;;3.00;1.80;;;11.30;72.60;;;;;;5016959;28;20072;-70
2022/06/21 04:42:53;;;;;;;2.08;1.60;;;11.30;72.30;;;;;;4984210;28;20030;-72
2022/06/21 04:45:25;;;;;;;2.00;1.70;;;11.40;72.60;;;;;;5027904;28;20056;-73
2022/06/21 04:48:09;;;;;;;3.88;2.42;;;11.40;72.40;;;;;;5007262;28;20040;-72
2022/06/21 04:50:42;;;;;;;4.78;2.25;;;11.40;73.00;;;;;;5001166;28;20033;-72
2022/06/21 04:53:40;;;;;;;2.35;2.05;;;11.50;72.80;;;;;;5006412;28;20037;-71
2022/06/21 04:56:17;;;;;;;4.70;2.53;;;11.50;73.10;;;;;;4974732;28;20055;-73
2022/06/21 04:58:44;;;;;;;2.97;2.25;;;11.50;72.80;;;;;;5024853;28;20598;-70
2022/06/21 05:03:54;;;;;;;3.40;2.28;;;11.60;72.60;;;;;;5015321;28;20088;-71
2022/06/21 05:06:19;;;;;;;3.08;2.15;;;11.60;72.60;;;;;;5022464;28;20050;-73
2022/06/21 05:08:47;;;;;;;10.32;9.27;;;11.70;72.80;;;;;;4970786;28;20045;-71
2022/06/21 05:11:12;;;;;;;6.50;5.20;;;11.70;72.80;;;;;;5013303;28;20033;-71
2022/06/21 05:13:40;;;;;;;11.45;6.03;;;11.70;73.00;;;;;;5017756;28;20038;-71
2022/06/21 05:16:34;;;;;;;9.32;8.48;;;11.80;73.10;;;;;;5023664;28;20025;-71
2022/06/21 05:19:12;;;;;;;5.68;4.70;;;11.80;73.40;;;;;;4992049;28;20038;-71
2022/06/21 05:21:39;;;;;;;4.32;3.85;;;11.80;73.20;;;;;;5018075;28;20096;-72
2022/06/21 05:24:05;;;;;;;3.40;3.10;;;11.90;73.20;;;;;;5017973;28;20678;-72
2022/06/21 05:26:36;;;;;;;3.00;2.80;;;11.90;73.30;;;;;;5004083;28;20030;-71
2022/06/21 05:29:12;;;;;;;5.05;4.18;;;11.90;73.20;;;;;;5002051;28;20065;-71
2022/06/21 05:31:40;;;;;;;6.22;3.38;;;12.00;73.20;;;;;;5004605;28;20120;-73
2022/06/21 05:34:25;;;;;;;7.95;5.57;;;12.00;72.90;;;;;;4998193;28;20105;-72
2022/06/21 05:37:03;;;;;;;4.43;3.95;;;12.10;73.00;;;;;;4990750;28;20036;-70
2022/06/21 05:39:39;;;;;;;3.72;2.70;;;12.20;73.30;;;;;;5003786;28;20037;-71
2022/06/21 05:42:05;;;;;;;2.40;2.20;;;12.20;73.50;;;;;;5002485;28;20176;-72
2022/06/21 05:44:42;;;;;;;4.15;2.38;;;12.30;73.10;;;;;;4994129;28;20136;-72
2022/06/21 05:47:27;;;;;;;5.18;3.28;;;12.30;73.20;;;;;;4995690;28;20041;-70
2022/06/21 05:49:52;;;;;;;7.88;3.83;;;12.40;73.30;;;;;;5018099;28;20044;-71
2022/06/21 05:52:24;;;;;;;3.97;3.00;;;12.50;72.90;;;;;;4990474;28;20041;-71
2022/06/21 05:54:55;;;;;;;5.25;2.95;;;12.60;73.10;;;;;;4974065;28;20107;-71
2022/06/21 05:57:22;;;;;;;7.97;3.30;;;12.70;73.10;;;;;;4996806;28;20750;-71
2022/06/21 05:59:48;;;;;;;3.63;3.08;;;12.70;73.00;;;;;;4998916;28;20049;-71
2022/06/21 06:02:34;;;;;;;3.97;3.03;;;12.80;73.10;;;;;;4997171;28;20057;-70
2022/06/21 06:05:11;;;;;;;6.70;3.55;;;12.90;73.70;;;;;;4979019;28;20120;-71
2022/06/21 06:07:46;;;;;;;8.90;4.07;;;12.90;73.30;;;;;;4981045;28;20041;-70
2022/06/21 06:10:11;;;;;;;4.50;2.97;;;13.00;73.20;;;;;;4996552;28;20045;-71
2022/06/21 06:12:39;;;;;;;5.05;3.47;;;13.10;73.00;;;;;;4968267;28;20053;-72
2022/06/21 06:15:13;;;;;;;8.02;4.35;;;13.20;72.90;;;;;;5009027;28;20033;-70
2022/06/21 06:17:51;;;;;;;6.25;3.38;;;13.30;72.90;;;;;;4983016;28;20075;-73
2022/06/21 06:20:24;;;;;;;5.43;3.83;;;13.40;73.30;;;;;;4999818;28;20033;-71
2022/06/21 06:23:06;;;;;;;6.82;3.45;;;13.40;73.00;;;;;;5021429;28;20104;-71
2022/06/21 06:25:32;;;;;;;12.60;4.60;;;13.60;73.20;;;;;;4992244;28;20189;-71
2022/06/21 06:28:17;;;;;;;18.38;4.85;;;13.70;72.80;;;;;;5014259;28;20037;-70
2022/06/21 06:31:01;;;;;;;8.77;3.90;;;13.80;73.30;;;;;;5013814;28;20053;-71
2022/06/21 06:33:31;;;;;;;8.95;3.53;;;14.00;72.90;;;;;;4995775;28;20498;-72
2022/06/21 06:35:57;;;;;;;7.95;3.60;;;14.10;72.60;;;;;;4999448;28;20038;-71
2022/06/21 06:38:23;;;;;;;6.50;3.83;;;14.20;72.50;;;;;;4993537;28;20038;-72
2022/06/21 06:41:26;;;;;;;6.38;4.13;;;14.30;72.30;;;;;;5007677;28;20119;-72
2022/06/21 06:43:57;;;;;;;8.02;3.22;;;14.50;72.40;;;;;;4942853;28;20066;-72
2022/06/21 06:46:31;;;;;;;7.35;3.63;;;14.60;71.90;;;;;;4957136;28;20043;-72
2022/06/21 06:49:16;;;;;;;8.13;3.10;;;14.80;71.70;;;;;;4939222;28;20094;-71
2022/06/21 06:51:58;;;;;;;8.45;3.63;;;14.90;71.60;;;;;;4939609;28;20090;-71
2022/06/21 06:54:38;;;;;;;;;;;15.10;71.10;;;;;;4933051;28;20077;-70
2022/06/21 06:57:19;;;;;;;9.50;4.47;;;15.20;70.80;;;;;;4931810;28;19934;-71
2022/06/21 06:59:45;;;;;;;10.32;4.20;;;15.40;70.80;;;;;;4916636;28;20041;-72
2022/06/21 07:02:31;;;;;;;8.68;4.85;;;15.50;70.40;;;;;;4932284;28;20051;-72
2022/06/21 07:05:04;;;;;;;6.32;4.15;;;15.60;70.70;;;;;;4939300;28;20035;-71
2022/06/21 07:07:37;;;;;;;5.32;2.80;;;15.80;70.20;;;;;;4923159;28;20050;-71
2022/06/21 07:10:05;;;;;;;5.03;3.20;;;16.00;70.00;;;;;;4933597;28;20043;-71
2022/06/21 07:12:31;;;;;;;4.57;3.90;;;16.10;69.70;;;;;;4942238;28;20474;-71
2022/06/21 07:14:56;;;;;;;7.05;4.95;;;16.30;69.50;;;;;;4940191;28;20543;-72
2022/06/21 07:17:41;;;;;;;9.13;4.20;;;16.50;69.30;;;;;;4932841;28;20044;-74
2022/06/21 07:20:35;;;;;;;7.85;4.43;;;16.60;69.10;;;;;;5010692;28;20100;-71
2022/06/21 07:23:01;;;;;;;5.60;3.95;;;16.80;69.10;;;;;;5012237;28;20037;-72
2022/06/21 07:25:29;;;;;;;3.90;2.88;;;17.00;68.60;;;;;;5014857;28;20067;-71
2022/06/21 07:27:57;;;;;;;3.55;2.30;;;17.20;68.30;;;;;;5020023;28;20059;-71
2022/06/21 07:30:26;;;;;;;7.97;3.30;;;17.30;67.80;;;;;;5006089;28;20085;-72
2022/06/21 07:32:58;;;;;;;7.03;4.65;;;17.60;67.60;;;;;;4987606;28;20030;-72
2022/06/21 07:35:34;;;;;;;5.55;3.60;;;17.70;67.30;;;;;;4994164;28;20437;-71
2022/06/21 07:38:06;;;;;;;5.07;2.70;;;17.90;67.00;;;;;;5000624;28;20037;-72
2022/06/21 07:40:42;;;;;;;5.18;2.40;;;18.10;66.50;;;;;;5031041;28;20112;-73
2022/06/21 07:43:14;;;;;;;7.93;2.95;;;18.30;66.10;;;;;;5021600;28;20637;-73
2022/06/21 07:45:51;;;;;;;2.42;2.08;;;18.50;65.60;;;;;;5006488;28;20037;-74
2022/06/21 07:48:25;;;;;;;3.72;2.00;;;18.60;65.30;;;;;;4988220;28;20029;-73
2022/06/21 07:50:53;;;;;;;4.07;2.00;;;18.80;64.80;;;;;;5016788;28;20034;-72
2022/06/21 07:53:24;;;;;;;5.47;2.08;;;19.00;64.40;;;;;;5002336;28;20037;-73
2022/06/21 07:56:11;;;;;;;6.55;3.03;;;19.20;64.00;;;;;;5016106;28;20097;-74
2022/06/21 07:59:07;;;;;;;6.18;2.10;;;19.40;63.40;;;;;;5012499;28;20033;-73
2022/06/21 08:07:29;;;;;;;3.90;1.85;;;20.00;61.70;;;;;;4989070;28;20098;-74
2022/06/21 08:10:20;;;;;;;6.25;2.40;;;20.20;61.60;;;;;;4979017;28;20038;-73
2022/06/21 08:12:46;;;;;;;2.38;1.63;;;20.40;60.40;;;;;;4986957;28;20038;-73
2022/06/21 08:15:11;;;;;;;3.20;1.30;;;20.60;60.40;;;;;;4974867;28;20044;-73
2022/06/21 08:17:38;;;;;;;4.18;1.33;;;20.70;59.80;;;;;;4988844;28;20753;-73
2022/06/21 08:20:11;;;;;;;5.80;2.53;;;20.90;59.10;;;;;;4984803;28;20046;-73
2022/06/21 08:22:47;;;;;;;2.58;1.42;;;21.10;58.40;;;;;;4970413;28;20100;-72
2022/06/21 08:25:29;;;;;;;2.83;1.60;;;21.20;57.40;;;;;;5000026;28;20046;-72
2022/06/21 08:27:56;;;;;;;2.95;1.60;;;21.40;57.20;;;;;;4969885;28;20089;-71
2022/06/21 08:30:42;;;;;;;3.28;1.15;;;21.60;57.10;;;;;;4982292;28;20026;-71
2022/06/21 08:33:30;;;;;;;4.78;1.20;;;21.80;55.90;;;;;;5016222;28;20109;-71
2022/06/21 08:36:06;;;;;;;2.75;1.33;;;22.00;55.60;;;;;;4980493;28;20038;-71
2022/06/21 08:38:41;;;;;;;2.88;1.25;;;22.20;55.20;;;;;;4968295;28;20038;-72
2022/06/21 08:44:29;;;;;;;4.78;1.42;;;22.60;54.10;;;;;;4983575;28;20092;-71
2022/06/21 08:47:23;;;;;;;2.85;1.38;;;22.80;54.20;;;;;;4998085;28;20041;-71
2022/06/21 08:50:11;;;;;;;4.88;1.50;;;23.10;53.20;;;;;;4999599;28;20057;-72
2022/06/21 08:53:01;;;;;;;2.65;1.33;;;23.20;52.50;;;;;;5016328;28;20033;-72
2022/06/21 08:55:35;;;;;;;4.07;1.58;;;23.40;52.40;;;;;;4997025;28;20037;-72
2022/06/21 08:58:10;;;;;;;4.40;1.70;;;23.60;52.40;;;;;;4976134;28;20037;-72
2022/06/21 09:00:37;;;;;;;3.05;1.50;;;23.70;51.50;;;;;;4965333;28;20034;-71
2022/06/21 09:03:22;;;;;;;2.13;1.38;;;23.80;51.50;;;;;;4997174;28;20104;-72
2022/06/21 09:06:09;;;;;;;3.38;1.27;;;24.00;50.20;;;;;;4982768;28;20043;-72
2022/06/21 09:08:44;;;;;;;3.45;1.30;;;24.00;50.70;;;;;;5003326;28;20040;-72
2022/06/21 09:11:24;;;;;;;6.30;1.38;;;24.20;50.40;;;;;;5014606;28;20041;-72
2022/06/21 09:14:25;;;;;;;5.05;1.73;;;24.30;50.00;;;;;;4992445;28;20103;-71
2022/06/21 09:17:12;;;;;;;3.83;1.45;;;24.50;48.60;;;;;;5001478;28;20044;-72
2022/06/21 09:19:53;;;;;;;4.85;1.63;;;24.70;49.10;;;;;;5008518;28;20067;-73
2022/06/21 09:22:40;;;;;;;3.40;1.33;;;24.90;48.40;;;;;;5023089;28;20046;-72
2022/06/21 09:25:28;;;;;;;2.33;1.15;;;25.10;47.50;;;;;;5024715;28;20046;-72
2022/06/21 09:28:06;;;;;;;2.78;1.42;;;25.20;47.20;;;;;;5001550;28;20087;-72
2022/06/21 09:30:41;;;;;;;4.50;1.48;;;25.30;47.30;;;;;;5032663;28;20041;-72
2022/06/21 09:33:30;;;;;;;4.50;1.30;;;25.50;46.90;;;;;;4996490;28;20096;-71
2022/06/21 09:36:07;;;;;;;4.60;1.50;;;25.60;46.70;;;;;;5003217;28;20034;-72
2022/06/21 09:38:39;;;;;;;3.78;1.60;;;25.80;45.90;;;;;;5001763;28;20037;-72
2022/06/21 09:41:31;;;;;;;6.63;1.40;;;25.80;46.40;;;;;;5020823;28;20026;-71
2022/06/21 09:44:35;;;;;;;4.43;1.42;;;25.90;44.80;;;;;;4999782;28;20700;-71
2022/06/21 09:47:09;;;;;;;5.28;1.48;;;26.10;44.70;;;;;;5004835;28;20040;-72
2022/06/21 09:49:51;;;;;;;3.05;1.48;;;26.30;45.20;;;;;;5004774;28;20037;-71
2022/06/21 09:52:17;;;;;;;4.32;1.25;;;26.40;44.30;;;;;;5007543;28;20065;-72
2022/06/21 09:55:15;;;;;;;3.63;1.20;;;26.60;44.70;;;;;;5017656;28;20131;-72
2022/06/21 09:57:48;;;;;;;3.42;1.30;;;26.70;44.10;;;;;;4931938;28;20484;-72
2022/06/21 10:00:41;;;;;;;3.42;1.05;;;27.00;43.90;;;;;;4954373;28;20037;-71
2022/06/21 10:03:18;;;;;;;3.45;1.25;;;27.10;42.60;;;;;;4982674;28;20119;-71
2022/06/21 10:06:14;;;;;;;3.10;0.90;;;27.10;43.40;;;;;;5015725;28;20052;-72
2022/06/21 10:08:54;;;;;;;2.70;1.02;;;27.20;41.80;;;;;;5008274;28;20060;-73
2022/06/21 10:11:35;;;;;;;3.60;1.63;;;27.30;42.50;;;;;;5004095;28;20056;-72
2022/06/21 10:14:27;;;;;;;2.63;1.27;;;27.40;42.60;;;;;;5027441;28;20273;-72
2022/06/21 10:17:21;;;;;;;2.47;1.45;;;27.40;42.00;;;;;;5000368;28;20038;-72
2022/06/21 10:20:13;;;;;;;4.50;1.15;;;27.50;41.50;;;;;;5011474;28;20056;-72
2022/06/21 10:22:57;;;;;;;2.15;0.98;;;27.70;40.50;;;;;;5003537;28;20083;-75
2022/06/21 10:25:42;;;;;;;4.15;0.90;;;27.90;40.70;;;;;;5002524;28;20075;-74
2022/06/21 10:28:35;;;;;;;2.05;1.00;;;28.00;40.70;;;;;;4996919;28;20041;-73
2022/06/21 10:31:00;;;;;;;1.58;0.70;;;28.20;40.00;;;;;;5016978;28;20087;-73
2022/06/21 10:33:54;;;;;;;3.78;0.90;;;28.40;40.70;;;;;;5029510;28;20063;-73
2022/06/21 10:36:38;;;;;;;4.93;1.15;;;28.50;39.20;;;;;;5031393;28;20076;-74
2022/06/21 10:39:21;;;;;;;3.22;0.90;;;28.60;40.80;;;;;;5022686;28;20666;-74
2022/06/21 10:45:13;;;;;;;3.92;0.88;;;28.70;37.90;;;;;;5035369;28;20441;-74
2022/06/21 10:47:52;;;;;;;1.90;0.90;;;28.70;39.20;;;;;;5021763;28;20058;-73
2022/06/21 10:50:34;;;;;;;2.90;1.30;;;28.90;38.90;;;;;;4988940;28;20462;-73
2022/06/21 10:53:24;;;;;;;3.45;0.73;;;29.00;38.70;;;;;;5010887;28;20080;-73
2022/06/21 10:59:08;;;;;;;2.08;0.75;;;29.40;38.10;;;;;;5021101;28;20069;-73
2022/06/21 11:02:04;;;;;;;2.50;1.15;;;29.50;37.30;;;;;;5016892;28;20329;-75
2022/06/21 11:04:36;;;;;;;2.70;0.80;;;29.70;36.90;;;;;;5033979;28;20061;-74
2022/06/21 11:07:20;;;;;;;2.80;0.60;;;29.80;37.50;;;;;;5012747;28;20049;-74
2022/06/21 11:09:48;;;;;;;2.05;1.20;;;29.80;36.60;;;;;;5002299;28;20026;-73
2022/06/21 11:15:16;;;;;;;;;;;30.00;36.90;;;;;;5008432;28;20907;-74
2022/06/21 11:17:52;;;;;;;1.83;0.90;;;30.20;37.50;;;;;;5007878;28;19991;-74
2022/06/21 11:20:44;;;;;;;3.20;0.80;;;30.30;36.60;;;;;;4980704;28;20033;-74
2022/06/21 11:23:15;;;;;;;1.58;0.60;;;30.30;36.00;;;;;;5006625;28;20038;-74
2022/06/21 11:25:50;;;;;;;3.03;0.80;;;30.30;36.10;;;;;;5021769;28;20048;-74
2022/06/21 11:28:33;;;;;;;2.00;0.90;;;30.40;36.10;;;;;;5008642;28;20042;-75
2022/06/21 11:31:05;;;;;;;4.80;1.10;;;30.50;35.50;;;;;;5026636;28;20049;-74
2022/06/21 11:33:40;;;;;;;3.53;0.80;;;30.50;35.20;;;;;;5013235;28;20029;-74
2022/06/21 11:36:33;;;;;;;2.83;0.70;;;30.70;34.90;;;;;;5017376;28;20037;-74
2022/06/21 11:39:11;;;;;;;3.65;1.02;;;30.90;34.30;;;;;;5026340;28;20379;-74
2022/06/21 11:44:37;;;;;;;2.20;0.60;;;31.20;34.40;;;;;;5025974;28;20048;-74
2022/06/21 11:47:10;;;;;;;1.20;0.77;;;31.40;34.50;;;;;;5022779;28;20076;-73
2022/06/21 11:49:48;;;;;;;2.97;0.90;;;31.60;33.80;;;;;;4991538;28;20119;-73
2022/06/21 11:52:26;;;;;;;2.25;0.80;;;31.70;33.80;;;;;;5004223;28;20064;-73
2022/06/21 11:55:13;;;;;;;1.55;0.60;;;32.00;32.70;;;;;;5025378;28;20061;-73
2022/06/21 11:57:49;;;;;;;2.22;0.77;;;32.00;32.10;;;;;;5022869;28;20033;-74
2022/06/21 12:00:25;;;;;;;0.63;0.60;;;32.00;33.00;;;;;;5037038;28;20025;-75
2022/06/21 12:02:55;;;;;;;3.33;0.73;;;32.00;32.70;;;;;;5000028;28;20044;-73
2022/06/21 12:05:40;;;;;;;2.85;0.68;;;32.10;32.40;;;;;;4999030;28;20061;-73
2022/06/21 12:08:16;;;;;;;1.85;0.50;;;32.10;30.50;;;;;;5017027;28;20034;-74
2022/06/21 12:10:51;;;;;;;3.20;0.73;;;32.10;32.20;;;;;;5009187;28;20025;-74
2022/06/21 12:13:26;;;;;;;2.05;0.95;;;32.30;32.10;;;;;;5003125;28;20120;-74
2022/06/21 12:16:15;;;;;;;1.85;0.70;;;32.30;31.50;;;;;;5006563;28;20457;-73
2022/06/21 12:18:49;;;;;;;3.85;0.90;;;32.30;30.60;;;;;;5022082;28;20571;-74
2022/06/21 12:21:17;;;;;;;1.88;0.70;;;32.30;31.60;;;;;;4995400;28;20041;-73
2022/06/21 12:23:45;;;;;;;1.58;0.70;;;32.30;31.60;;;;;;5002770;28;20189;-74
2022/06/21 12:26:13;;;;;;;2.85;1.05;;;32.40;31.40;;;;;;4991384;28;20109;-74
2022/06/21 12:28:39;;;;;;;2.35;0.70;;;32.50;31.50;;;;;;4993536;28;20041;-74
2022/06/21 12:31:43;;;;;;;1.35;0.70;;;32.70;31.50;;;;;;5015725;28;20045;-74
2022/06/21 12:34:25;;;;;;;4.13;0.90;;;32.80;30.00;;;;;;4999091;28;20033;-73
2022/06/21 12:37:03;;;;;;;1.88;0.88;;;32.80;30.60;;;;;;5012122;28;20045;-73
2022/06/21 12:39:37;;;;;;;1.60;0.70;;;32.90;30.60;;;;;;4987345;28;20037;-75
2022/06/21 12:42:34;;;;;;;1.58;0.70;;;32.80;30.20;;;;;;4992239;28;20041;-73
2022/06/21 12:45:21;;;;;;;2.33;0.80;;;32.80;30.10;;;;;;5011450;28;20041;-74
2022/06/21 12:47:58;;;;;;;1.42;0.60;;;32.80;30.60;;;;;;5017049;28;20079;-73
2022/06/21 12:50:29;;;;;;;2.25;0.60;;;32.90;30.00;;;;;;5023703;28;20677;-74
2022/06/21 12:52:58;;;;;;;1.92;0.60;;;33.00;30.20;;;;;;5020499;28;20060;-73
2022/06/21 12:55:33;;;;;;;1.85;0.80;;;33.00;30.20;;;;;;5033853;28;20040;-73
2022/06/21 12:58:02;;;;;;;2.45;0.75;;;33.20;30.10;;;;;;5032451;28;20052;-73
2022/06/21 13:00:36;;;;;;;1.58;0.60;;;33.20;30.00;;;;;;5017835;28;20041;-74
2022/06/21 13:03:46;;;;;;;3.47;0.63;;;33.20;29.90;;;;;;5009289;28;20093;-73
2022/06/21 13:06:17;;;;;;;1.98;0.68;;;33.10;29.40;;;;;;5013005;28;20049;-74
2022/06/21 13:09:09;;;;;;;1.38;0.73;;;33.00;30.00;;;;;;5023600;28;20034;-71
2022/06/21 13:11:54;;;;;;;5.60;1.05;;;33.10;28.90;;;;;;5013073;28;20037;-72
2022/06/21 13:14:32;;;;;;;2.85;0.70;;;33.10;29.20;;;;;;5002901;28;20037;-72
2022/06/21 13:17:14;;;;;;;1.30;0.52;;;33.20;29.00;;;;;;4991339;28;20722;-74
2022/06/21 13:19:55;;;;;;;1.50;0.70;;;33.10;29.20;;;;;;5037418;28;20039;-75
2022/06/21 13:22:28;;;;;;;4.70;0.88;;;33.20;28.90;;;;;;5015365;28;20545;-74
2022/06/21 13:25:22;;;;;;;1.88;0.80;;;33.10;28.90;;;;;;5011268;28;20037;-75
2022/06/21 13:28:09;;;;;;;2.83;0.63;;;33.00;28.80;;;;;;4990213;28;20033;-74
2022/06/21 13:30:47;;;;;;;2.78;0.90;;;32.90;28.80;;;;;;5012332;28;20029;-74
2022/06/21 13:33:18;;;;;;;2.25;0.70;;;33.00;29.30;;;;;;5024207;28;20666;-74
2022/06/21 13:35:48;;;;;;;1.40;0.50;;;33.00;29.30;;;;;;5020930;28;20041;-72
2022/06/21 13:38:41;;;;;;;2.75;0.80;;;33.10;29.30;;;;;;4997459;28;20040;-72
2022/06/21 13:44:37;;;;;;;3.47;0.80;;;33.30;29.00;;;;;;5018287;28;20043;-72
2022/06/21 13:47:05;;;;;;;3.17;0.80;;;33.30;29.10;;;;;;5020634;28;20048;-72
2022/06/21 13:49:35;;;;;;;1.38;0.70;;;33.20;29.30;;;;;;5000944;28;20041;-72
2022/06/21 13:52:12;;;;;;;0.98;0.77;;;33.30;29.20;;;;;;5005518;28;20030;-74
2022/06/21 13:54:41;;;;;;;2.80;0.55;;;33.40;29.30;;;;;;5002648;28;20552;-73
2022/06/21 13:57:25;;;;;;;2.70;0.80;;;33.40;29.30;;;;;;5016568;28;20449;-73
2022/06/21 13:59:50;;;;;;;2.42;0.77;;;33.40;29.20;;;;;;4996670;28;20355;-74
2022/06/21 14:02:42;;;;;;;6.05;0.70;;;33.30;29.00;;;;;;4997410;28;20048;-74